TimeCDT,TemperatureF,Dew PointF,Humidity,Sea Level PressureIn,VisibilityMPH,Wind Direction,Wind SpeedMPH,Gust SpeedMPH,PrecipitationIn,Events,Conditions,WindDirDegrees,DateUTC
12:51 AM,84.0,69.1,61,29.99,10.0,South,8.1,-,N/A,,Clear,190,2013-08-05 05:51:00
1:51 AM,81.0,68.0,65,29.99,10.0,South,6.9,-,N/A,,Clear,180,2013-08-05 06:51:00
2:51 AM,80.1,68.0,67,29.99,10.0,South,6.9,-,N/A,,Clear,180,2013-08-05 07:51:00
3:51 AM,79.0,69.1,72,29.99,10.0,Variable,4.6,-,N/A,,Clear,0,2013-08-05 08:51:00
4:51 AM,78.1,70.0,76,29.99,10.0,South,5.8,-,N/A,,Clear,190,2013-08-05 09:51:00
5:51 AM,77.0,71.1,82,29.99,10.0,Variable,5.8,-,N/A,,Partly Cloudy,0,2013-08-05 10:51:00
6:51 AM,75.9,72.0,87,30.00,10.0,South,4.6,-,N/A,,Clear,190,2013-08-05 11:51:00
7:51 AM,78.1,72.0,81,30.01,10.0,South,4.6,-,N/A,,Clear,190,2013-08-05 12:51:00
8:51 AM,81.0,72.0,74,30.01,10.0,Variable,6.9,-,N/A,,Partly Cloudy,0,2013-08-05 13:51:00
9:51 AM,84.9,71.1,63,30.01,10.0,SSW,9.2,-,N/A,,Partly Cloudy,200,2013-08-05 14:51:00
10:51 AM,90.0,70.0,52,30.00,10.0,South,6.9,-,N/A,,Clear,190,2013-08-05 15:51:00
11:51 AM,91.9,68.0,45,29.99,10.0,South,9.2,-,N/A,,Clear,190,2013-08-05 16:51:00
12:51 PM,96.1,66.9,38,29.96,10.0,Variable,6.9,-,N/A,,Clear,0,2013-08-05 17:51:00
1:51 PM,100.0,64.0,31,29.94,10.0,SSE,9.2,-,N/A,,Clear,160,2013-08-05 18:51:00
2:51 PM,100.9,63.0,29,29.91,10.0,South,10.4,-,N/A,,Clear,170,2013-08-05 19:51:00
3:51 PM,102.9,61.0,25,29.88,10.0,South,8.1,-,N/A,,Clear,190,2013-08-05 20:51:00
4:51 PM,102.9,61.0,25,29.86,10.0,Variable,6.9,-,N/A,,Clear,0,2013-08-05 21:51:00
5:51 PM,100.9,59.0,25,29.85,10.0,Variable,4.6,-,N/A,,Clear,0,2013-08-05 22:51:00
6:51 PM,100.0,57.9,25,29.84,10.0,Variable,4.6,-,N/A,,Clear,0,2013-08-05 23:51:00
7:51 PM,97.0,57.9,27,29.83,10.0,North,-9999.0,-,N/A,,Clear,0,2013-08-06 00:51:00
8:51 PM,93.9,66.9,41,29.85,10.0,South,10.4,25.3,N/A,,Clear,170,2013-08-06 01:51:00
9:51 PM,91.0,64.9,42,29.88,10.0,SSE,10.4,19.6,N/A,,Clear,160,2013-08-06 02:51:00
10:51 PM,88.0,66.0,48,29.89,10.0,South,8.1,18.4,N/A,,Clear,170,2013-08-06 03:51:00
11:51 PM,84.9,69.1,59,29.90,10.0,Variable,6.9,-,N/A,,Clear,0,2013-08-06 04:51:00